Time;durP1;ratioP1;P1;durP2;ratioP2;P2;SDS_P1;SDS_P2;PMS_P1;PMS_P2;Temp;Humidity;BMP_temperature;BMP_pressure;BME280_temperature;BME280_humidity;BME280_pressure;Samples;Min_cycle;Max_cycle;Signal;HPM_P1;HPM_P2
2021/01/28 00:00:38;;;;;;;22.15;12.02;;;;;;;3.04;85.90;99449.69;4994894;28;20046;-34
2021/01/28 00:03:11;;;;;;;21.88;13.13;;;;;;;3.06;85.55;99442.09;4974203;28;20506;-33
2021/01/28 00:05:43;;;;;;;18.73;12.25;;;;;;;3.05;85.51;99430.09;4976168;28;20038;-34
2021/01/28 00:08:15;;;;;;;21.88;12.43;;;;;;;3.03;85.44;99430.06;4976098;28;20117;-33
2021/01/28 00:10:46;;;;;;;19.67;12.05;;;;;;;3.05;86.04;99415.59;4973568;28;20045;-33
2021/01/28 00:13:17;;;;;;;16.45;11.05;;;;;;;3.07;86.05;99423.34;4975567;28;20098;-33
2021/01/28 00:15:48;;;;;;;16.77;10.88;;;;;;;3.06;85.35;99416.47;4975067;28;20035;-33
2021/01/28 00:18:22;;;;;;;15.70;10.50;;;;;;;3.06;85.92;99416.47;4990288;28;20042;-33
2021/01/28 00:20:50;;;;;;;17.70;11.70;;;;;;;3.06;85.82;99408.81;4990629;28;20066;-33
2021/01/28 00:23:27;;;;;;;17.58;10.80;;;;;;;3.04;85.83;99401.03;4990739;28;20380;-33
2021/01/28 00:26:01;;;;;;;19.52;11.30;;;;;;;3.07;85.70;99401.97;4975369;28;20030;-33
2021/01/28 00:28:31;;;;;;;14.88;11.05;;;;;;;3.05;85.41;99384.00;4990274;28;20042;-33
2021/01/28 00:31:02;;;;;;;14.35;10.23;;;;;;;3.06;86.10;99383.19;4974291;28;20034;-33
2021/01/28 00:33:37;;;;;;;16.38;10.15;;;;;;;3.07;85.85;99397.75;4974335;28;20039;-33
2021/01/28 00:36:06;;;;;;;13.82;9.65;;;;;;;3.07;85.92;99392.63;4974938;28;20105;-34
2021/01/28 00:38:39;;;;;;;10.90;8.65;;;;;;;3.06;86.33;99380.63;4974315;28;20501;-33
2021/01/28 00:41:10;;;;;;;11.32;8.65;;;;;;;3.08;86.14;99376.44;4990220;28;20047;-33
2021/01/28 00:43:40;;;;;;;13.55;9.73;;;;;;;3.09;86.05;99372.19;4990477;28;20114;-33
2021/01/28 00:46:12;;;;;;;11.82;8.82;;;;;;;3.07;85.95;99367.00;4975248;28;20552;-33
2021/01/28 00:48:41;;;;;;;12.25;8.48;;;;;;;3.09;86.13;99357.69;4973884;28;20038;-34
2021/01/28 00:51:10;;;;;;;11.07;8.10;;;;;;;3.09;85.87;99357.69;4973978;28;20034;-33
2021/01/28 00:53:41;;;;;;;12.07;8.45;;;;;;;3.11;86.10;99350.06;4990162;28;20046;-33
2021/01/28 00:56:14;;;;;;;11.95;8.00;;;;;;;3.10;85.72;99349.22;4973595;28;20494;-33
2021/01/28 00:58:45;;;;;;;11.23;8.27;;;;;;;3.10;85.99;99338.97;4975126;28;20062;-33
2021/01/28 01:01:13;;;;;;;10.07;8.00;;;;;;;3.10;85.81;99323.59;4975122;28;20749;-33
2021/01/28 01:03:44;;;;;;;10.88;8.43;;;;;;;3.08;86.17;99322.66;4994626;28;20100;-33
2021/01/28 01:06:16;;;;;;;15.57;9.43;;;;;;;3.10;86.18;99310.81;4993259;28;20053;-33
2021/01/28 01:08:47;;;;;;;10.63;8.43;;;;;;;3.10;85.92;99309.91;4994193;28;20394;-33
2021/01/28 01:11:17;;;;;;;10.65;8.07;;;;;;;3.10;86.50;99303.13;4994140;28;20042;-33
2021/01/28 01:13:48;;;;;;;13.40;8.38;;;;;;;3.10;86.31;99304.78;4994163;28;20038;-34
2021/01/28 01:16:19;;;;;;;10.65;8.13;;;;;;;3.10;86.51;99307.34;4994428;28;20047;-33
2021/01/28 01:18:56;;;;;;;9.70;8.00;;;;;;;3.10;86.23;99290.31;4994390;28;20042;-33
2021/01/28 01:21:27;;;;;;;8.20;7.05;;;;;;;3.11;86.46;99288.59;4993049;28;20065;-33
2021/01/28 01:23:58;;;;;;;11.10;7.60;;;;;;;3.11;86.42;99280.94;4993824;28;20121;-33
2021/01/28 01:26:26;;;;;;;10.73;7.82;;;;;;;3.11;85.87;99269.00;4994286;28;20042;-34
2021/01/28 01:28:57;;;;;;;9.57;8.02;;;;;;;3.10;86.51;99268.94;4993837;28;20112;-33
2021/01/28 01:31:28;;;;;;;9.00;7.40;;;;;;;3.11;85.71;99260.44;4976743;28;20532;-33
2021/01/28 01:33:57;;;;;;;8.95;6.18;;;;;;;3.11;86.41;99257.88;4993904;28;20497;-33
2021/01/28 01:36:28;;;;;;;9.25;7.22;;;;;;;3.11;85.87;99251.09;4994088;28;20071;-33
2021/01/28 01:38:59;;;;;;;8.25;6.80;;;;;;;3.11;86.60;99247.63;4992507;28;20092;-33
2021/01/28 01:41:31;;;;;;;6.65;5.57;;;;;;;3.12;85.92;99250.25;4994004;28;20042;-33
2021/01/28 01:44:05;;;;;;;7.72;6.47;;;;;;;3.13;86.49;99253.69;4994254;28;20035;-33
2021/01/28 01:46:35;;;;;;;7.40;6.47;;;;;;;3.11;86.00;99256.22;4992184;28;20042;-33
2021/01/28 01:49:14;;;;;;;9.18;6.35;;;;;;;3.12;86.44;99255.34;4976402;28;20034;-33
2021/01/28 01:51:43;;;;;;;7.38;5.68;;;;;;;3.11;86.11;99245.09;4994130;28;20045;-33
2021/01/28 01:54:23;;;;;;;8.15;5.95;;;;;;;3.12;86.28;99229.75;4993760;28;20035;-33
2021/01/28 01:56:59;;;;;;;6.28;5.53;;;;;;;3.14;86.11;99229.81;4993991;28;20038;-33
2021/01/28 01:59:39;;;;;;;8.55;6.63;;;;;;;3.16;85.82;99229.03;4976448;28;20038;-33
2021/01/28 02:02:14;;;;;;;6.28;5.60;;;;;;;3.15;86.79;99222.19;4976684;28;20047;-33
2021/01/28 02:04:50;;;;;;;6.95;5.93;;;;;;;3.13;85.80;99208.44;4993998;28;20070;-33
2021/01/28 02:07:26;;;;;;;6.55;5.47;;;;;;;3.14;86.02;99189.72;4975785;28;20078;-33
2021/01/28 02:09:54;;;;;;;6.25;5.32;;;;;;;3.14;86.41;99186.28;4993895;28;20027;-33
2021/01/28 02:12:25;;;;;;;6.50;5.57;;;;;;;3.15;86.30;99182.91;4993597;28;20037;-33
2021/01/28 02:14:54;;;;;;;7.40;4.95;;;;;;;3.14;86.49;99178.63;4994069;28;20042;-33
2021/01/28 02:17:25;;;;;;;7.43;5.28;;;;;;;3.16;86.08;99185.50;4992709;28;20046;-33
2021/01/28 02:19:59;;;;;;;7.68;6.20;;;;;;;3.16;86.09;99175.25;4993669;28;20031;-33
2021/01/28 02:22:46;;;;;;;6.70;5.18;;;;;;;3.16;86.14;99166.72;4993304;28;20429;-33
2021/01/28 02:25:28;;;;;;;9.07;5.65;;;;;;;3.16;86.16;99147.09;4993348;28;20057;-33
2021/01/28 02:28:20;;;;;;;6.15;5.55;;;;;;;3.17;85.95;99136.03;4993642;28;20065;-33
2021/01/28 02:30:47;;;;;;;6.53;5.32;;;;;;;3.17;85.94;99137.75;4990910;28;20054;-33
2021/01/28 02:33:47;;;;;;;6.18;5.47;;;;;;;3.18;86.52;99145.47;4959514;28;20121;-33
2021/01/28 02:36:20;;;;;;;7.75;5.63;;;;;;;3.17;86.30;99128.34;4997409;28;20039;-33
2021/01/28 02:38:46;;;;;;;6.82;5.47;;;;;;;3.19;86.24;99121.59;4997174;28;20125;-33
2021/01/28 02:41:19;;;;;;;6.28;5.38;;;;;;;3.16;86.35;99118.94;4996944;28;20122;-33
2021/01/28 02:43:50;;;;;;;6.45;5.28;;;;;;;3.18;86.45;99112.16;4997150;28;20125;-34
2021/01/28 02:46:16;;;;;;;7.70;6.18;;;;;;;3.18;86.14;99099.38;4996903;28;20490;-33
2021/01/28 02:48:41;;;;;;;5.68;5.00;;;;;;;3.18;86.35;99085.72;4996810;28;20045;-33
2021/01/28 02:51:09;;;;;;;6.07;5.18;;;;;;;3.20;86.26;99081.47;4996892;28;20069;-33
2021/01/28 02:53:45;;;;;;;5.82;5.22;;;;;;;3.20;86.37;99082.38;4996651;28;20038;-33
2021/01/28 02:56:19;;;;;;;5.60;5.00;;;;;;;3.20;86.50;99081.47;4979338;28;20031;-33
2021/01/28 02:58:50;;;;;;;6.57;4.93;;;;;;;3.22;86.35;99084.09;4996645;28;20049;-33
2021/01/28 03:01:19;;;;;;;6.50;5.68;;;;;;;3.19;86.32;99078.06;4979326;28;20042;-33
2021/01/28 03:03:48;;;;;;;6.97;5.13;;;;;;;3.22;85.83;99073.84;4996846;28;20035;-33
2021/01/28 03:06:22;;;;;;;5.68;4.93;;;;;;;3.22;86.03;99072.16;4995986;28;20051;-33
2021/01/28 03:08:49;;;;;;;7.18;4.95;;;;;;;3.21;86.01;99070.41;4995931;28;20430;-33
2021/01/28 03:11:18;;;;;;;6.65;5.50;;;;;;;3.22;85.92;99064.47;4996372;28;20049;-33
2021/01/28 03:13:46;;;;;;;6.45;5.38;;;;;;;3.23;86.36;99061.09;4978887;28;20049;-33
2021/01/28 03:16:17;;;;;;;8.20;5.75;;;;;;;3.23;85.81;99057.66;4996399;28;20442;-33
2021/01/28 03:18:48;;;;;;;6.20;5.22;;;;;;;3.24;86.37;99046.59;4996306;28;20041;-33
2021/01/28 03:21:19;;;;;;;6.20;5.60;;;;;;;3.25;86.02;99043.22;4996271;28;20039;-33
2021/01/28 03:23:58;;;;;;;10.27;5.72;;;;;;;3.24;86.33;99034.66;4996118;28;20042;-34
2021/01/28 03:26:27;;;;;;;6.57;5.40;;;;;;;3.23;86.28;99027.78;4996536;28;20042;-33
2021/01/28 03:28:57;;;;;;;7.45;5.38;;;;;;;3.24;86.56;99021.00;4996151;28;20470;-33
2021/01/28 03:31:29;;;;;;;6.97;5.28;;;;;;;3.24;86.29;99014.16;4994816;28;20069;-33
2021/01/28 03:34:03;;;;;;;6.63;4.65;;;;;;;3.26;86.14;99015.09;4995676;28;20125;-34
2021/01/28 03:36:32;;;;;;;5.72;5.03;;;;;;;3.27;86.27;99000.59;4994891;28;20121;-33
2021/01/28 03:39:05;;;;;;;6.93;5.60;;;;;;;3.27;86.21;98998.03;4994636;28;20039;-33
2021/01/28 03:41:37;;;;;;;6.70;5.72;;;;;;;3.26;86.41;99002.28;4962342;28;20047;-33
2021/01/28 03:44:05;;;;;;;8.00;5.70;;;;;;;3.27;86.39;98988.66;4994752;28;20069;-33
2021/01/28 03:46:41;;;;;;;8.32;6.07;;;;;;;3.29;85.92;98984.44;4978603;28;20030;-34
2021/01/28 03:49:13;;;;;;;7.85;5.10;;;;;;;3.26;86.18;98984.34;4995759;28;20413;-34
2021/01/28 03:51:44;;;;;;;8.68;5.00;;;;;;;3.29;86.18;98983.56;4995601;28;20030;-33
2021/01/28 03:54:18;;;;;;;6.65;4.57;;;;;;;3.29;86.54;98981.88;4995741;28;20038;-34
2021/01/28 03:56:49;;;;;;;7.68;5.45;;;;;;;3.29;86.46;98976.75;4995588;28;20030;-34
2021/01/28 03:59:20;;;;;;;6.57;5.40;;;;;;;3.29;85.92;98974.19;4978532;28;20030;-34
2021/01/28 04:01:52;;;;;;;7.60;5.47;;;;;;;3.31;86.68;98974.22;4995394;28;20130;-33
2021/01/28 04:04:22;;;;;;;7.07;5.43;;;;;;;3.32;86.44;98965.72;4995652;28;20049;-33
2021/01/28 04:06:56;;;;;;;7.20;5.30;;;;;;;3.31;86.66;98957.19;4995460;28;20038;-33
2021/01/28 04:09:30;;;;;;;8.63;4.57;;;;;;;3.34;86.07;98953.84;4994869;28;20052;-34
2021/01/28 04:12:00;;;;;;;6.13;4.68;;;;;;;3.32;85.75;98947.78;4995312;28;20049;-33
2021/01/28 04:14:29;;;;;;;5.80;4.95;;;;;;;3.33;86.29;98946.97;4994840;28;20126;-33
2021/01/28 04:16:57;;;;;;;5.85;4.82;;;;;;;3.33;86.23;98944.41;4995136;28;20070;-33
2021/01/28 04:19:31;;;;;;;7.93;4.50;;;;;;;3.33;85.95;98934.16;4994872;28;20065;-33
2021/01/28 04:22:02;;;;;;;4.90;4.40;;;;;;;3.35;85.92;98937.63;4977448;28;20046;-33
2021/01/28 04:24:36;;;;;;;6.00;4.85;;;;;;;3.35;86.21;98918.00;4995316;28;20173;-33
2021/01/28 04:27:05;;;;;;;7.47;4.53;;;;;;;3.33;86.16;98919.69;4993807;28;20520;-33
2021/01/28 04:29:36;;;;;;;6.05;5.40;;;;;;;3.33;86.21;98906.00;4993829;28;20084;-33
2021/01/28 04:32:07;;;;;;;5.00;4.40;;;;;;;3.34;86.31;98907.72;4995020;28;20038;-33
2021/01/28 04:34:38;;;;;;;5.93;4.22;;;;;;;3.36;86.00;98906.09;4977557;28;20030;-33
2021/01/28 04:37:12;;;;;;;5.38;4.50;;;;;;;3.34;86.06;98900.03;4994657;28;20030;-33
2021/01/28 04:39:44;;;;;;;7.13;4.85;;;;;;;3.34;86.29;98884.69;4994707;28;20038;-33
2021/01/28 04:42:19;;;;;;;5.13;4.32;;;;;;;3.37;86.70;98881.31;4961279;28;20049;-33
2021/01/28 04:44:48;;;;;;;4.25;3.78;;;;;;;3.37;86.54;98865.94;4994512;28;20046;-33
2021/01/28 04:47:21;;;;;;;5.57;4.18;;;;;;;3.37;86.44;98860.81;4994591;28;20591;-33
2021/01/28 04:49:58;;;;;;;7.28;3.90;;;;;;;3.38;86.09;98854.88;4994419;28;20386;-33
2021/01/28 04:52:40;;;;;;;5.97;4.85;;;;;;;3.38;86.53;98850.66;4994594;28;20034;-33
2021/01/28 04:55:15;;;;;;;8.30;4.15;;;;;;;3.39;86.50;98841.25;4993155;28;20131;-33
2021/01/28 04:57:42;;;;;;;6.13;3.63;;;;;;;3.38;85.95;98835.28;4993967;28;20034;-33
2021/01/28 05:00:11;;;;;;;5.22;3.55;;;;;;;3.38;86.77;98832.72;4977001;28;20390;-33
2021/01/28 05:02:47;;;;;;;4.18;3.40;;;;;;;3.40;86.46;98825.06;4989656;28;20046;-33
2021/01/28 05:05:16;;;;;;;5.10;3.75;;;;;;;3.41;86.46;98819.09;4973815;28;20105;-33
2021/01/28 05:07:49;;;;;;;4.45;3.38;;;;;;;3.42;86.23;98815.72;4974972;28;20513;-33
2021/01/28 05:10:35;;;;;;;4.38;3.22;;;;;;;3.41;86.23;98809.75;4974266;28;20201;-33
2021/01/28 05:13:06;;;;;;;4.70;3.78;;;;;;;3.42;86.68;98801.22;4975348;28;20427;-33
2021/01/28 05:15:39;;;;;;;4.65;3.60;;;;;;;3.43;86.45;98796.97;4975005;28;20058;-33
2021/01/28 05:18:23;;;;;;;4.20;3.42;;;;;;;3.43;86.59;98785.00;4974849;28;20541;-33
2021/01/28 05:20:50;;;;;;;3.28;2.97;;;;;;;3.42;86.16;98780.75;4989844;28;20492;-33
2021/01/28 05:23:31;;;;;;;3.20;2.90;;;;;;;3.44;86.37;98778.19;4974889;28;20077;-33
2021/01/28 05:26:00;;;;;;;7.18;3.72;;;;;;;3.43;86.56;98768.78;4974753;28;20045;-33
2021/01/28 05:28:34;;;;;;;6.22;3.97;;;;;;;3.41;86.27;98763.63;4973545;28;20034;-33
2021/01/28 05:31:03;;;;;;;4.00;3.10;;;;;;;3.42;86.63;98757.69;4974427;28;20038;-34
2021/01/28 05:33:35;;;;;;;3.33;2.97;;;;;;;3.43;86.56;98746.56;4974345;28;20065;-33
2021/01/28 05:36:16;;;;;;;4.90;2.80;;;;;;;3.46;86.65;98745.81;4974694;28;20035;-33
2021/01/28 05:38:49;;;;;;;3.65;2.28;;;;;;;3.46;86.54;98733.84;4973707;28;20046;-33
2021/01/28 05:41:34;;;;;;;3.95;2.45;;;;;;;3.45;86.71;98719.31;4974647;28;20093;-33
2021/01/28 05:44:28;;;;;;;4.43;2.47;;;;;;;3.47;87.18;98716.81;4974339;28;20031;-33
2021/01/28 05:47:07;;;;;;;3.67;3.13;;;;;;;3.47;87.27;98704.84;4974357;28;20039;-33
2021/01/28 05:49:41;;;;;;;4.63;2.47;;;;;;;3.48;86.27;98701.44;4974401;28;20059;-33
2021/01/28 05:52:28;;;;;;;3.00;2.60;;;;;;;3.50;86.57;98694.69;4974774;28;20035;-33
2021/01/28 05:55:07;;;;;;;3.50;2.80;;;;;;;3.49;86.88;98690.38;4974554;28;20038;-33
2021/01/28 05:57:57;;;;;;;3.03;2.45;;;;;;;3.51;86.44;98690.41;4974510;28;20086;-33
2021/01/28 06:00:25;;;;;;;4.05;2.53;;;;;;;3.49;86.81;98686.97;4974348;28;20375;-33
2021/01/28 06:02:58;;;;;;;2.47;2.05;;;;;;;3.52;87.00;98673.34;4988520;28;20061;-33
2021/01/28 06:05:45;;;;;;;3.20;2.05;;;;;;;3.53;86.41;98669.97;4993853;28;20062;-33
2021/01/28 06:08:48;;;;;;;3.25;2.63;;;;;;;3.53;87.32;98667.41;4993675;28;20046;-33
2021/01/28 06:11:48;;;;;;;3.15;2.25;;;;;;;3.54;87.09;98661.44;4997571;28;20050;-33
2021/01/28 06:14:19;;;;;;;3.97;2.70;;;;;;;3.52;87.02;98646.03;4997631;28;20045;-33
2021/01/28 06:17:14;;;;;;;3.38;2.50;;;;;;;3.54;86.94;98643.50;4997424;28;20030;-33
2021/01/28 06:19:48;;;;;;;3.28;1.80;;;;;;;3.53;86.63;98608.47;4997293;28;20042;-33
2021/01/28 06:22:23;;;;;;;;;;;;;;;3.54;87.03;98587.16;4996639;28;20038;-33
2021/01/28 06:25:06;;;;;;;5.43;2.97;;;;;;;3.53;87.05;98577.72;4997268;28;19920;-33
2021/01/28 06:27:56;;;;;;;3.60;2.13;;;;;;;3.55;86.92;98566.66;4997173;28;20046;-33
2021/01/28 06:30:36;;;;;;;3.53;2.00;;;;;;;3.56;86.90;98570.13;4997037;28;20034;-33
2021/01/28 06:33:20;;;;;;;4.78;2.00;;;;;;;3.57;86.84;98565.00;4997100;28;20049;-33
2021/01/28 06:35:56;;;;;;;3.40;1.80;;;;;;;3.57;86.61;98548.78;4996983;28;20040;-34
2021/01/28 06:38:38;;;;;;;4.63;2.00;;;;;;;3.60;86.74;98533.44;4996017;28;20048;-33
2021/01/28 06:41:12;;;;;;;2.38;1.83;;;;;;;3.59;86.72;98536.84;4996628;28;20034;-33
2021/01/28 06:43:52;;;;;;;7.97;2.30;;;;;;;3.61;86.88;98524.94;4997229;28;20585;-33
2021/01/28 06:46:51;;;;;;;4.55;1.70;;;;;;;3.61;87.14;98513.00;4996385;28;20038;-34
2021/01/28 06:49:25;;;;;;;3.20;1.48;;;;;;;3.63;87.57;98510.47;4997024;28;20034;-33
2021/01/28 06:52:02;;;;;;;1.80;1.58;;;;;;;3.62;87.06;98489.13;4996545;28;20030;-33
2021/01/28 06:54:50;;;;;;;2.65;1.20;;;;;;;3.65;87.46;98493.41;4995241;28;20076;-34
2021/01/28 06:57:32;;;;;;;2.13;1.52;;;;;;;3.64;87.05;98484.88;4996849;28;20049;-33
2021/01/28 07:00:36;;;;;;;6.38;1.42;;;;;;;3.66;86.67;98478.06;4980190;28;20490;-33
2021/01/28 07:03:24;;;;;;;3.75;1.50;;;;;;;3.69;87.15;98478.97;4975752;28;20505;-34
2021/01/28 07:06:09;;;;;;;3.60;1.15;;;;;;;3.69;87.16;98468.72;4995426;28;20074;-33
2021/01/28 07:09:02;;;;;;;3.45;1.15;;;;;;;3.70;87.43;98460.19;4996611;28;20068;-33
2021/01/28 07:11:36;;;;;;;2.88;1.20;;;;;;;3.73;87.33;98457.69;4996308;28;20426;-33
2021/01/28 07:14:03;;;;;;;1.88;1.38;;;;;;;3.73;87.62;98468.81;4979000;28;20045;-33
2021/01/28 07:16:49;;;;;;;2.22;1.17;;;;;;;3.73;87.31;98457.69;4996682;28;20038;-33
2021/01/28 07:19:19;;;;;;;2.42;1.42;;;;;;;3.74;87.14;98454.28;4996345;28;20072;-33
2021/01/28 07:21:52;;;;;;;1.33;1.10;;;;;;;3.77;87.91;98444.94;4994718;28;20038;-34
2021/01/28 07:24:36;;;;;;;9.57;1.55;;;;;;;3.78;87.59;98436.44;4995071;28;20041;-33
2021/01/28 07:27:09;;;;;;;6.70;1.90;;;;;;;3.81;87.96;98451.88;4996487;28;20042;-33
2021/01/28 07:29:46;;;;;;;2.10;1.40;;;;;;;3.82;87.10;98450.16;4996088;28;20037;-34
2021/01/28 07:32:34;;;;;;;5.03;1.38;;;;;;;3.83;87.45;98439.06;4996051;28;20048;-34
2021/01/28 07:35:24;;;;;;;4.35;1.45;;;;;;;3.84;86.79;98450.19;4996011;28;20038;-34
2021/01/28 07:38:16;;;;;;;4.93;1.40;;;;;;;3.84;87.63;98437.38;4996021;28;20038;-34
2021/01/28 07:41:10;;;;;;;3.65;1.48;;;;;;;3.84;87.05;98439.94;4961965;28;20433;-33
2021/01/28 07:43:40;;;;;;;4.47;1.30;;;;;;;3.86;87.72;98430.59;4995704;28;20038;-33
2021/01/28 07:46:10;;;;;;;2.95;1.80;;;;;;;3.86;87.49;98436.56;4979041;28;20042;-33
2021/01/28 07:48:39;;;;;;;3.30;1.45;;;;;;;3.85;87.31;98421.16;4994766;28;20050;-33
2021/01/28 07:51:26;;;;;;;2.63;1.33;;;;;;;3.89;87.84;98421.25;4978299;28;20030;-34
2021/01/28 07:53:54;;;;;;;4.45;1.63;;;;;;;3.89;87.64;98425.53;4995363;28;20078;-34
2021/01/28 07:56:53;;;;;;;2.55;1.10;;;;;;;3.88;87.72;98432.34;4995580;28;20034;-33
2021/01/28 07:59:46;;;;;;;6.60;1.42;;;;;;;3.88;87.28;98427.19;4963469;28;20053;-34
2021/01/28 08:02:24;;;;;;;4.32;1.60;;;;;;;3.92;87.67;98416.16;4995191;28;20046;-33
2021/01/28 08:05:01;;;;;;;4.70;1.35;;;;;;;3.92;87.08;98411.03;4994310;28;20069;-33
2021/01/28 08:07:39;;;;;;;4.40;1.55;;;;;;;3.94;87.94;98411.06;4995171;28;20133;-33
2021/01/28 08:10:23;;;;;;;3.15;1.40;;;;;;;3.94;87.89;98411.06;4995787;28;20096;-33
2021/01/28 08:12:52;;;;;;;3.20;1.27;;;;;;;3.94;87.88;98406.81;4995594;28;20073;-33
2021/01/28 08:15:31;;;;;;;4.68;1.17;;;;;;;3.95;87.29;98397.41;4977690;28;20041;-33
2021/01/28 08:18:18;;;;;;;2.80;1.35;;;;;;;4.00;87.47;98400.03;4995597;28;20042;-33
2021/01/28 08:20:47;;;;;;;3.10;1.67;;;;;;;3.98;87.70;98394.91;4993910;28;20081;-34
2021/01/28 08:23:26;;;;;;;3.03;1.23;;;;;;;4.03;87.49;98393.28;4995338;28;20069;-33
2021/01/28 08:26:09;;;;;;;1.77;1.10;;;;;;;4.01;87.66;98386.38;4977919;28;20038;-33
2021/01/28 08:28:40;;;;;;;3.17;1.33;;;;;;;4.05;87.81;98381.31;4994800;28;20125;-34
2021/01/28 08:31:24;;;;;;;2.45;1.33;;;;;;;4.03;87.23;98384.72;4995068;28;20382;-33
2021/01/28 08:33:59;;;;;;;2.55;1.15;;;;;;;4.07;87.68;98376.25;4977013;28;20044;-33
2021/01/28 08:36:30;;;;;;;4.10;1.30;;;;;;;4.11;87.56;98375.44;4994864;28;20039;-33
2021/01/28 08:39:16;;;;;;;1.63;0.98;;;;;;;4.08;87.56;98370.28;4977435;28;20042;-33
2021/01/28 08:41:43;;;;;;;2.13;0.95;;;;;;;4.10;87.72;98371.16;4995288;28;20045;-33
2021/01/28 08:44:15;;;;;;;1.92;1.17;;;;;;;4.10;88.25;98373.72;4995032;28;20496;-33
2021/01/28 08:46:46;;;;;;;1.75;1.00;;;;;;;4.10;87.30;98366.03;4994684;28;20027;-33
2021/01/28 08:49:20;;;;;;;1.83;1.27;;;;;;;4.14;88.38;98359.25;4994770;28;20093;-33
2021/01/28 08:51:54;;;;;;;;;;;;;;;4.17;87.88;98364.41;4977689;28;20069;-33
2021/01/28 08:54:25;;;;;;;2.90;1.30;;;;;;;4.17;88.20;98367.84;4994770;28;20013;-33
2021/01/28 08:56:55;;;;;;;2.60;1.17;;;;;;;4.19;87.73;98365.31;4976999;28;20034;-33
2021/01/28 08:59:22;;;;;;;1.65;1.30;;;;;;;4.19;87.96;98365.31;4976950;28;20038;-33
2021/01/28 09:01:51;;;;;;;3.65;1.30;;;;;;;4.24;88.18;98361.09;4993766;28;20042;-33
2021/01/28 09:04:23;;;;;;;3.65;1.00;;;;;;;4.27;88.16;98356.00;4994094;28;20088;-33
2021/01/28 09:06:49;;;;;;;1.75;0.85;;;;;;;4.25;88.27;98350.00;4993242;28;20041;-33
2021/01/28 09:09:18;;;;;;;2.50;1.00;;;;;;;4.27;88.42;98350.88;4994339;28;20053;-33
2021/01/28 09:11:46;;;;;;;2.10;1.10;;;;;;;4.31;88.13;98354.34;4994166;28;20037;-33
2021/01/28 09:14:28;;;;;;;2.22;1.23;;;;;;;4.34;88.29;98352.72;4993974;28;20034;-33
2021/01/28 09:16:57;;;;;;;0.77;0.70;;;;;;;4.36;88.55;98348.44;4994267;28;20037;-33
2021/01/28 09:19:24;;;;;;;1.50;1.05;;;;;;;4.34;87.99;98349.25;4993968;28;20038;-33
2021/01/28 09:22:06;;;;;;;1.80;1.13;;;;;;;4.35;88.48;98343.28;4994149;28;20089;-33
2021/01/28 09:24:42;;;;;;;1.33;0.80;;;;;;;4.36;88.14;98342.44;4994443;28;20046;-34
2021/01/28 09:27:40;;;;;;;3.97;1.23;;;;;;;4.41;88.09;98330.56;4993916;28;20072;-34
2021/01/28 09:30:17;;;;;;;0.85;0.82;;;;;;;4.38;87.75;98330.50;4965523;28;20506;-33
2021/01/28 09:32:42;;;;;;;1.38;0.88;;;;;;;4.36;88.01;98335.59;4976353;28;20037;-33
2021/01/28 09:35:16;;;;;;;1.70;1.00;;;;;;;4.37;88.55;98333.91;4976455;28;20039;-33
2021/01/28 09:38:04;;;;;;;4.45;1.77;;;;;;;4.46;88.59;98335.75;4994084;28;20097;-34
2021/01/28 09:40:43;;;;;;;1.80;1.23;;;;;;;4.45;88.54;98339.16;4976470;28;20133;-34
2021/01/28 09:43:35;;;;;;;1.67;0.85;;;;;;;4.46;87.94;98336.59;4995201;28;20038;-33
2021/01/28 09:46:33;;;;;;;1.38;1.02;;;;;;;4.45;88.73;98329.75;4994645;28;20504;-34
2021/01/28 09:49:04;;;;;;;1.60;1.10;;;;;;;4.49;87.90;98340.94;4944124;28;20093;-33
2021/01/28 09:51:36;;;;;;;2.17;1.10;;;;;;;4.50;88.08;98342.66;4998171;28;20034;-33
2021/01/28 09:54:11;;;;;;;3.83;1.08;;;;;;;4.57;88.50;98349.56;4997294;28;20035;-33
2021/01/28 09:56:40;;;;;;;1.98;1.00;;;;;;;4.59;88.92;98339.34;4997781;28;20104;-34
2021/01/28 09:59:06;;;;;;;1.95;1.35;;;;;;;4.59;88.40;98340.19;4997596;28;20156;-34
2021/01/28 10:01:38;;;;;;;1.20;1.00;;;;;;;4.68;88.83;98339.44;4996144;28;20051;-33
2021/01/28 10:04:04;;;;;;;1.45;1.05;;;;;;;4.66;89.13;98338.56;4997532;28;20417;-33
2021/01/28 10:06:34;;;;;;;2.88;1.83;;;;;;;4.71;88.56;98337.78;4980126;28;20038;-33
2021/01/28 10:09:03;;;;;;;1.63;1.23;;;;;;;4.75;89.10;98335.25;4997392;28;20065;-34
2021/01/28 10:11:37;;;;;;;2.78;1.38;;;;;;;4.80;88.60;98336.19;4997557;28;20493;-33
2021/01/28 10:14:06;;;;;;;3.67;1.73;;;;;;;4.81;88.68;98341.31;4997560;28;20188;-33
2021/01/28 10:16:34;;;;;;;2.40;1.40;;;;;;;4.78;88.85;98331.00;4997400;28;20169;-33
2021/01/28 10:19:05;;;;;;;1.95;1.30;;;;;;;4.77;89.13;98329.28;4997512;28;20037;-34
2021/01/28 10:21:30;;;;;;;1.42;1.33;;;;;;;4.72;88.40;98330.94;4979714;28;20038;-34
2021/01/28 10:24:01;;;;;;;3.45;1.33;;;;;;;4.75;89.37;98333.53;4980542;28;20037;-34
2021/01/28 10:26:27;;;;;;;1.95;1.17;;;;;;;4.85;89.50;98332.81;4997484;28;20030;-33
2021/01/28 10:28:57;;;;;;;2.85;1.50;;;;;;;4.89;89.42;98328.56;4997113;28;20038;-34
2021/01/28 10:31:24;;;;;;;4.20;1.08;;;;;;;4.78;88.72;98331.00;4997058;28;20528;-34
2021/01/28 10:33:51;;;;;;;1.80;1.33;;;;;;;4.79;88.37;98326.75;4997119;28;20494;-34
2021/01/28 10:36:19;;;;;;;2.65;1.42;;;;;;;4.79;88.39;98325.03;4996817;28;20076;-34
2021/01/28 10:38:48;;;;;;;1.50;1.00;;;;;;;4.82;88.51;98329.34;4997059;28;20038;-33
2021/01/28 10:41:14;;;;;;;2.92;1.40;;;;;;;4.87;88.58;98331.13;4996940;28;20036;-34
2021/01/28 10:43:39;;;;;;;3.35;1.50;;;;;;;4.81;88.23;98320.78;4996944;28;20039;-34
2021/01/28 10:46:11;;;;;;;2.50;1.42;;;;;;;4.81;88.69;98318.22;4963096;28;20077;-34
2021/01/28 10:48:41;;;;;;;1.48;1.10;;;;;;;4.86;89.00;98328.53;4996895;28;20034;-34
2021/01/28 10:51:07;;;;;;;3.03;1.50;;;;;;;4.94;88.63;98334.63;4979495;28;20100;-34
2021/01/28 10:53:41;;;;;;;1.35;1.17;;;;;;;4.84;88.49;98327.66;4997150;28;20042;-34
2021/01/28 10:56:07;;;;;;;1.83;1.33;;;;;;;4.89;88.41;98326.00;4994815;28;20042;-34
2021/01/28 10:58:33;;;;;;;2.03;1.23;;;;;;;4.90;88.32;98326.88;4996631;28;20061;-34
2021/01/28 11:00:59;;;;;;;1.45;1.15;;;;;;;4.88;88.53;98325.16;4996714;28;20065;-34
2021/01/28 11:03:26;;;;;;;1.80;1.40;;;;;;;4.95;88.73;98335.47;4996340;28;20482;-34
2021/01/28 11:05:54;;;;;;;1.30;1.10;;;;;;;4.98;88.35;98332.94;4996784;28;20053;-33
2021/01/28 11:08:22;;;;;;;2.55;1.15;;;;;;;4.99;88.45;98324.41;4979050;28;20042;-34
2021/01/28 11:10:54;;;;;;;1.35;1.05;;;;;;;5.09;89.19;98340.78;4996454;28;20034;-34
2021/01/28 11:13:22;;;;;;;1.70;1.13;;;;;;;5.16;89.57;98340.84;4996288;28;20046;-33
2021/01/28 11:15:48;;;;;;;1.30;1.20;;;;;;;5.21;89.40;98340.06;4996259;28;20038;-34
2021/01/28 11:18:13;;;;;;;1.20;0.93;;;;;;;5.22;89.98;98337.47;4996100;28;20105;-33
2021/01/28 11:20:39;;;;;;;1.63;1.42;;;;;;;5.30;89.67;98335.84;4996233;28;20494;-34
2021/01/28 11:23:07;;;;;;;2.00;1.55;;;;;;;5.31;89.74;98347.84;4996244;28;20532;-34
2021/01/28 11:25:35;;;;;;;2.53;1.58;;;;;;;5.35;90.09;98338.47;4996142;28;20038;-33
2021/01/28 11:28:04;;;;;;;4.03;2.47;;;;;;;5.45;90.05;98340.28;4978617;28;20038;-34
2021/01/28 11:30:33;;;;;;;2.10;1.67;;;;;;;5.41;90.20;98341.09;4996128;28;20034;-34
2021/01/28 11:33:00;;;;;;;2.50;2.15;;;;;;;5.47;89.29;98341.16;4995727;28;20040;-34
2021/01/28 11:35:31;;;;;;;3.40;2.10;;;;;;;5.40;89.07;98331.66;4995703;28;20436;-34
2021/01/28 11:38:02;;;;;;;3.22;1.92;;;;;;;5.36;89.53;98335.06;4995865;28;20505;-33
2021/01/28 11:40:32;;;;;;;4.43;2.38;;;;;;;5.43;90.04;98336.81;4996165;28;20062;-34
2021/01/28 11:42:58;;;;;;;3.58;2.45;;;;;;;5.37;89.77;98334.22;4994664;28;20078;-34
2021/01/28 11:45:29;;;;;;;3.95;3.00;;;;;;;5.48;89.39;98339.44;4995781;28;20473;-34
2021/01/28 11:47:55;;;;;;;2.63;2.17;;;;;;;5.46;89.27;98342.00;4995686;28;20042;-34
2021/01/28 11:50:25;;;;;;;2.88;2.00;;;;;;;5.50;89.63;98342.88;4995781;28;20027;-34
2021/01/28 11:52:56;;;;;;;3.00;2.10;;;;;;;5.41;89.09;98341.09;4978286;28;20034;-34
2021/01/28 11:55:28;;;;;;;4.47;2.00;;;;;;;5.46;89.98;98338.56;4995278;28;20145;-34
2021/01/28 11:57:56;;;;;;;3.92;2.42;;;;;;;5.56;90.11;98334.34;4978269;28;20548;-34
2021/01/28 12:00:26;;;;;;;4.35;2.50;;;;;;;5.56;89.71;98334.34;4995509;28;20046;-34
2021/01/28 12:02:55;;;;;;;2.17;1.92;;;;;;;5.51;89.76;98344.59;4995473;28;20061;-34
2021/01/28 12:05:23;;;;;;;4.38;2.03;;;;;;;5.55;89.96;98343.78;4994296;28;20544;-34
2021/01/28 12:07:55;;;;;;;4.50;2.83;;;;;;;5.57;90.05;98342.09;4976674;28;20046;-34
2021/01/28 12:10:25;;;;;;;4.65;2.08;;;;;;;5.53;89.58;98337.78;4977570;28;20049;-34
2021/01/28 12:12:52;;;;;;;4.35;2.22;;;;;;;5.56;89.80;98350.66;4995232;28;20038;-34